Kalenakliyat 2 — TCBA7 — position and weather

sailwx.info

Track history (hours):
 
Tides and Currents Weather Stations Pressure Air Temp Water Temp Dewpoint Dewpoint Depression Visibility Wind Speed Wind Dir Waves Ship Positions

Kalenakliyat 2

Last reported at 2014-Nov-01 11:33 UTC. Time now 2014-Nov-01 12:01 UTC.
Position N 40°53' E 029°12'.

Length 73 m; draft 4.3 m.

Type: Cargo ship. MMSI: 271002023.

Date/timePositionNaut miles runAvg speedWind from/ knotsBaromVisibWave heightAir tempDewpointWater temp
2014-Nov-01 11:33N 40°53' E 029°12'0 0.0
2014-Nov-01 10:33N 40°53' E 029°12'0 0.0
2014-Nov-01 09:33N 40°53' E 029°12'0 0.0
2014-Nov-01 08:33N 40°53' E 029°12'0 0.0
2014-Nov-01 07:33N 40°53' E 029°12'0 0.0
2014-Nov-01 06:33N 40°53' E 029°12'0 0.0
2014-Nov-01 05:33N 40°53' E 029°12'0 0.1
2014-Nov-01 04:33N 40°53' E 029°12'7 7.4
2014-Nov-01 03:33N 40°49' E 029°04'9 8.8
2014-Nov-01 02:33N 40°47' E 028°52'9 8.5
2014-Nov-01 01:32N 40°45' E 028°41'15 0.5
2014-Oct-30 20:31N 40°49' E 028°60'8 8.5
2014-Oct-30 19:32N 40°52' E 029°10'2 1.9
2014-Oct-30 18:33N 40°53' E 029°12'0 0.0
2014-Oct-30 17:33N 40°53' E 029°12'0 0.0
2014-Oct-30 16:33N 40°53' E 029°12'0 0.0
2014-Oct-30 15:33N 40°53' E 029°12'0 0.0
2014-Oct-30 14:33N 40°53' E 029°12'0 0.0
2014-Oct-30 13:33N 40°53' E 029°12'0 0.0
2014-Oct-30 12:33N 40°53' E 029°12'0 0.0
2014-Oct-30 11:33N 40°53' E 029°12'0 0.0
2014-Oct-30 10:33N 40°53' E 029°12'0 0.0
2014-Oct-30 09:33N 40°53' E 029°12'0 0.1
2014-Oct-30 08:33N 40°53' E 029°12'0 0.1
2014-Oct-30 07:33N 40°53' E 029°12'0 0.0
2014-Oct-30 06:33N 40°53' E 029°12'0 0.0
2014-Oct-30 05:32N 40°53' E 029°12'0 0.0
2014-Oct-30 04:33N 40°53' E 029°12'0 0.0
2014-Oct-30 03:33N 40°53' E 029°12'0 0.0
2014-Oct-30 02:33N 40°53' E 029°12'0 0.0
2014-Oct-30 01:33N 40°53' E 029°12'0 0.0
2014-Oct-30 00:33N 40°53' E 029°12'0 0.0
2014-Oct-29 23:33N 40°53' E 029°12'0 0.0
2014-Oct-29 22:33N 40°53' E 029°12'0 0.0
2014-Oct-29 21:33N 40°53' E 029°12'0 0.0
2014-Oct-29 20:33N 40°53' E 029°12'3 2.6
2014-Oct-29 19:33N 40°53' E 029°09'23 6.9
2014-Oct-29 16:08N 41°15' E 029°21'6 8.4
2014-Oct-29 15:29N 41°15' E 029°28'7 8.0
2014-Oct-29 14:33N 41°16' E 029°38'  
Track history (hours):
 
Tides and Currents Weather Stations Pressure Air Temp Water Temp Dewpoint Dewpoint Depression Visibility Wind Speed Wind Dir Waves Ship Positions

Kalenakliyat 2

Last reported at 2014-Nov-01 11:33 UTC. Time now 2014-Nov-01 12:01 UTC.
Position N 40°53' E 029°12'.

Length 73 m; draft 4.3 m.

Type: Cargo ship. MMSI: 271002023.

Date/timePositionNaut miles runAvg speedWind from/ knotsBaromVisibWave heightAir tempDewpointWater temp
2014-Nov-01 11:33N 40°53' E 029°12'0 0.0
2014-Nov-01 10:33N 40°53' E 029°12'0 0.0
2014-Nov-01 09:33N 40°53' E 029°12'0 0.0
2014-Nov-01 08:33N 40°53' E 029°12'0 0.0
2014-Nov-01 07:33N 40°53' E 029°12'0 0.0
2014-Nov-01 06:33N 40°53' E 029°12'0 0.0
2014-Nov-01 05:33N 40°53' E 029°12'0 0.1
2014-Nov-01 04:33N 40°53' E 029°12'7 7.4
2014-Nov-01 03:33N 40°49' E 029°04'9 8.8
2014-Nov-01 02:33N 40°47' E 028°52'9 8.5
2014-Nov-01 01:32N 40°45' E 028°41'15 0.5
2014-Oct-30 20:31N 40°49' E 028°60'8 8.5
2014-Oct-30 19:32N 40°52' E 029°10'2 1.9
2014-Oct-30 18:33N 40°53' E 029°12'0 0.0
2014-Oct-30 17:33N 40°53' E 029°12'0 0.0
2014-Oct-30 16:33N 40°53' E 029°12'0 0.0
2014-Oct-30 15:33N 40°53' E 029°12'0 0.0
2014-Oct-30 14:33N 40°53' E 029°12'0 0.0
2014-Oct-30 13:33N 40°53' E 029°12'0 0.0
2014-Oct-30 12:33N 40°53' E 029°12'0 0.0
2014-Oct-30 11:33N 40°53' E 029°12'0 0.0
2014-Oct-30 10:33N 40°53' E 029°12'0 0.0
2014-Oct-30 09:33N 40°53' E 029°12'0 0.1
2014-Oct-30 08:33N 40°53' E 029°12'0 0.1
2014-Oct-30 07:33N 40°53' E 029°12'0 0.0
2014-Oct-30 06:33N 40°53' E 029°12'0 0.0
2014-Oct-30 05:32N 40°53' E 029°12'0 0.0
2014-Oct-30 04:33N 40°53' E 029°12'0 0.0
2014-Oct-30 03:33N 40°53' E 029°12'0 0.0
2014-Oct-30 02:33N 40°53' E 029°12'0 0.0
2014-Oct-30 01:33N 40°53' E 029°12'0 0.0
2014-Oct-30 00:33N 40°53' E 029°12'0 0.0
2014-Oct-29 23:33N 40°53' E 029°12'0 0.0
2014-Oct-29 22:33N 40°53' E 029°12'0 0.0
2014-Oct-29 21:33N 40°53' E 029°12'0 0.0
2014-Oct-29 20:33N 40°53' E 029°12'3 2.6
2014-Oct-29 19:33N 40°53' E 029°09'23 6.9
2014-Oct-29 16:08N 41°15' E 029°21'6 8.4
2014-Oct-29 15:29N 41°15' E 029°28'7 8.0
2014-Oct-29 14:33N 41°16' E 029°38'  

Dump ship's entire track history